Rechercher aéroport 
image banner adimage banner adimage banner ad
image banner ad

KLVK - Livermore Muni

Situé à Livermore, United States

ICAO - LVK, IATA - LVK

Données fournies par Airmate  

Information générale

Coordonnées: N37°41'36" W121°49'13"
Élévation : 400 feet MSL.
Variation magnétique : 16° East
Voir autres Aéroports à California

Données opérationnelles

Special qualification required
Heure actuelle UTC:
Heure actuelle locale:
Météo
METAR: KLVK 251453Z 32004KT 10SM CLR 17/12 A2995 RMK AO2 SLP139 T01670117 50006
TAF: KLVK 251121Z 2512/2612 28008KT P6SM FEW200 FM251400 VRB05KT P6SM FEW015 FEW200 FM251800 28010KT P6SM SKC FM252200 30013KT P6SM FEW200 FM260400 30008KT P6SM FEW200
Voir NOTAMs / SUP AIP / TFR affectant cet aéroport [VIEW]
Fréquences de communication: [VIEW]

Pistes:

Identifiant RWYQFULongueur (ft)Largeur (ft)SurfaceLDA (ft)
07R90°269975ASPH
25L270°269975ASPH
07L90°5253100ASPH
25R270°5253100ASPH

Coordonnées de l'aéroport

Adresse: Livermore United States

Autres services d'aviation

Écoles de pilotage

Attitude Aviation, Inc.

Attitude Aviation, Inc.
attav@aol.com+1(925)456-2276

Red Sky Aviation, Llc

Red Sky Aviation, Llc

Atp Flight School (800-All-Atps)

Atp Flight School (800-All-Atps)
info@allatps.com+1(800)255-2877

Jato Aviation

Jato Aviation
ops@jatoaviation.com+1(650)654-5286

Vue satellite de KLVK